Time;durP1;ratioP1;P1;durP2;ratioP2;P2;SDS_P1;SDS_P2;PMS_P1;PMS_P2;Temp;Humidity;BMP_temperature;BMP_pressure;BME280_temperature;BME280_humidity;BME280_pressure;Samples;Min_cycle;Max_cycle;Signal;HPM_P1;HPM_P2
2023/06/02 00:00:51;;;;;;;19.02;5.40;;;17.60;99.90;;;;;;5054856;28;20201;-91
2023/06/02 00:03:22;;;;;;;23.02;5.75;;;17.70;99.90;;;;;;5053320;28;20196;-91
2023/06/02 00:05:55;;;;;;;19.23;5.22;;;17.70;99.90;;;;;;5065979;28;20605;-91
2023/06/02 00:08:27;;;;;;;20.38;5.50;;;17.80;99.90;;;;;;5073313;28;20219;-90
2023/06/02 00:11:04;;;;;;;22.20;5.43;;;17.90;99.90;;;;;;5070364;28;20210;-90
2023/06/02 00:13:37;;;;;;;20.92;5.88;;;18.00;99.90;;;;;;5073006;28;20282;-91
2023/06/02 00:16:12;;;;;;;19.20;5.88;;;18.00;99.90;;;;;;5072550;28;20203;-91
2023/06/02 00:18:45;;;;;;;21.05;6.30;;;18.00;99.90;;;;;;5072428;28;20681;-91
2023/06/02 00:21:18;;;;;;;29.30;6.03;;;18.00;99.90;;;;;;5073308;28;20203;-91
2023/06/02 00:23:53;;;;;;;26.08;5.93;;;18.10;99.90;;;;;;5072521;28;20200;-91
2023/06/02 00:26:29;;;;;;;20.98;4.85;;;18.20;99.90;;;;;;5091894;28;20215;-90
2023/06/02 00:29:01;;;;;;;19.65;5.20;;;18.30;99.90;;;;;;5091122;28;20238;-91
2023/06/02 00:31:35;;;;;;;23.52;5.40;;;18.30;99.90;;;;;;5091015;28;20228;-90
2023/06/02 00:34:07;;;;;;;23.80;5.15;;;18.40;99.90;;;;;;5073556;28;20232;-91
2023/06/02 00:36:41;;;;;;;26.65;5.68;;;18.30;99.90;;;;;;5073140;28;20227;-90
2023/06/02 00:39:12;;;;;;;22.02;5.20;;;18.40;99.90;;;;;;5072540;28;20565;-90
2023/06/02 00:41:48;;;;;;;16.73;4.85;;;18.40;99.90;;;;;;5073453;28;20278;-90
2023/06/02 00:44:20;;;;;;;26.80;5.78;;;18.50;99.90;;;;;;5072698;28;20462;-91
2023/06/02 00:46:51;;;;;;;16.23;5.38;;;18.60;99.90;;;;;;5073727;28;20209;-90
2023/06/02 00:49:23;;;;;;;18.83;5.05;;;18.60;99.90;;;;;;5071608;28;20214;-91
2023/06/02 00:51:57;;;;;;;22.83;5.75;;;18.70;99.90;;;;;;5073401;28;20655;-91
2023/06/02 00:54:34;;;;;;;26.80;6.47;;;18.70;99.90;;;;;;5073024;28;20291;-90
2023/06/02 00:57:11;;;;;;;23.35;5.60;;;18.70;99.90;;;;;;5072151;28;20626;-90
2023/06/02 00:59:43;;;;;;;19.63;5.10;;;18.80;99.90;;;;;;5057984;28;20204;-91
2023/06/02 01:02:16;;;;;;;18.02;4.95;;;18.80;99.90;;;;;;5052635;28;20193;-90
2023/06/02 01:04:50;;;;;;;16.58;4.70;;;19.00;99.90;;;;;;5062292;28;20722;-89
2023/06/02 01:07:27;;;;;;;19.45;5.30;;;19.00;99.90;;;;;;5072864;28;20224;-88
2023/06/02 01:10:02;;;;;;;19.70;4.55;;;19.20;99.90;;;;;;5072146;28;20663;-90
2023/06/02 01:12:39;;;;;;;27.08;5.22;;;19.10;99.90;;;;;;5086401;28;20211;-90
2023/06/02 01:15:13;;;;;;;24.17;5.47;;;19.10;99.90;;;;;;5072742;28;20214;-90
2023/06/02 01:17:45;;;;;;;19.50;4.80;;;19.20;99.90;;;;;;5055283;28;20196;-90
2023/06/02 01:20:21;;;;;;;19.67;4.80;;;19.20;99.90;;;;;;5052758;28;20218;-91
2023/06/02 01:23:08;;;;;;;19.40;4.65;;;19.40;99.90;;;;;;5051965;28;20192;-91
2023/06/02 01:25:44;;;;;;;19.63;4.88;;;19.40;99.90;;;;;;5054650;28;20702;-90
2023/06/02 01:28:15;;;;;;;20.33;5.07;;;19.40;99.90;;;;;;5055418;28;20203;-91
2023/06/02 01:30:47;;;;;;;23.65;5.75;;;19.40;99.90;;;;;;5066354;28;20702;-91
2023/06/02 01:33:23;;;;;;;21.10;5.13;;;19.50;99.90;;;;;;5060633;28;20216;-91
2023/06/02 01:35:59;;;;;;;18.00;4.38;;;19.60;99.90;;;;;;5057275;28;20227;-91
2023/06/02 01:38:32;;;;;;;20.00;4.85;;;19.60;99.90;;;;;;5082379;28;20230;-90
2023/06/02 01:41:09;;;;;;;16.70;4.55;;;19.70;99.90;;;;;;5079592;28;20203;-91
2023/06/02 01:43:41;;;;;;;18.92;4.53;;;19.70;99.90;;;;;;5070177;28;20721;-91
2023/06/02 01:46:15;;;;;;;18.45;4.18;;;19.70;99.90;;;;;;5056241;28;20224;-90
2023/06/02 01:48:47;;;;;;;14.07;3.70;;;19.70;99.90;;;;;;5083592;28;20263;-86
2023/06/02 01:51:22;;;;;;;16.27;4.45;;;19.60;99.90;;;;;;5076071;28;20196;-90
2023/06/02 01:53:55;;;;;;;17.65;4.25;;;19.60;99.90;;;;;;5072104;28;20200;-87
2023/06/02 01:56:30;;;;;;;20.30;4.25;;;19.60;99.90;;;;;;5082828;28;20222;-87
2023/06/02 01:59:03;;;;;;;16.98;3.85;;;19.60;99.90;;;;;;5094507;28;20199;-89
2023/06/02 02:01:40;;;;;;;21.38;4.75;;;19.60;99.90;;;;;;5079986;28;20258;-90
2023/06/02 02:04:12;;;;;;;15.35;3.70;;;19.60;99.90;;;;;;5076193;28;20211;-89
2023/06/02 02:06:49;;;;;;;24.23;4.75;;;19.60;99.90;;;;;;5070395;28;20307;-91
2023/06/02 02:09:21;;;;;;;13.18;3.95;;;19.70;99.90;;;;;;5056206;28;20204;-90
2023/06/02 02:11:57;;;;;;;22.05;4.35;;;19.80;99.90;;;;;;5056058;28;20204;-91
2023/06/02 02:14:30;;;;;;;16.15;3.90;;;19.80;99.90;;;;;;5055979;28;20659;-90
2023/06/02 02:17:03;;;;;;;18.17;4.28;;;19.80;99.90;;;;;;5055236;28;20215;-91
2023/06/02 02:19:34;;;;;;;19.98;4.15;;;19.90;99.90;;;;;;5060186;28;20643;-91
2023/06/02 02:22:07;;;;;;;14.13;3.72;;;19.90;99.90;;;;;;5070876;28;20275;-91
2023/06/02 02:24:40;;;;;;;15.77;3.70;;;19.90;99.90;;;;;;5055849;28;20204;-90
2023/06/02 02:27:15;;;;;;;15.45;3.50;;;20.00;99.90;;;;;;5055991;28;20205;-91
2023/06/02 02:29:47;;;;;;;10.95;3.55;;;20.00;99.90;;;;;;5055258;28;20228;-91
2023/06/02 02:32:19;;;;;;;16.85;3.92;;;20.10;99.90;;;;;;5089678;28;20199;-91
2023/06/02 02:34:51;;;;;;;19.17;4.28;;;20.10;99.90;;;;;;5077762;28;20236;-90
2023/06/02 02:37:23;;;;;;;18.48;4.35;;;20.10;99.90;;;;;;5075720;28;20211;-90
2023/06/02 02:39:56;;;;;;;20.42;4.20;;;20.10;99.90;;;;;;5081808;28;20196;-88
2023/06/02 02:42:30;;;;;;;16.30;4.47;;;20.20;99.90;;;;;;5076079;28;20607;-90
2023/06/02 02:45:01;;;;;;;23.05;4.68;;;20.10;99.90;;;;;;5055363;28;20204;-90
2023/06/02 02:47:32;;;;;;;21.02;4.60;;;20.20;99.90;;;;;;5067585;28;20230;-90
2023/06/02 02:50:15;;;;;;;18.67;4.40;;;20.10;99.90;;;;;;5077845;28;20223;-90
2023/06/02 02:52:55;;;;;;;13.30;3.75;;;20.10;99.90;;;;;;5059749;28;20196;-90
2023/06/02 02:55:33;;;;;;;14.02;4.13;;;20.10;99.90;;;;;;5060057;28;20633;-90
2023/06/02 02:58:12;;;;;;;14.38;4.00;;;20.10;99.90;;;;;;5055736;28;20197;-91
2023/06/02 03:00:45;;;;;;;14.48;3.78;;;20.10;99.90;;;;;;5069338;28;20199;-90
2023/06/02 03:03:16;;;;;;;16.50;4.03;;;20.20;99.90;;;;;;5062974;28;22060;-89
2023/06/02 03:05:48;;;;;;;14.90;3.97;;;20.10;99.90;;;;;;5082094;28;20215;-90
2023/06/02 03:08:22;;;;;;;12.52;3.50;;;20.10;99.90;;;;;;5093247;28;20270;-88
2023/06/02 03:10:54;;;;;;;14.27;3.60;;;20.30;99.90;;;;;;5087700;28;20226;-90
2023/06/02 03:13:28;;;;;;;16.70;3.28;;;20.40;99.90;;;;;;5095218;28;20203;-89
2023/06/02 03:16:01;;;;;;;15.00;3.42;;;20.50;99.90;;;;;;5064132;28;20215;-89
2023/06/02 03:18:33;;;;;;;20.98;4.05;;;20.60;99.90;;;;;;5059064;28;20670;-90
2023/06/02 03:21:06;;;;;;;17.25;3.88;;;20.70;99.90;;;;;;5055158;28;20690;-89
2023/06/02 03:23:40;;;;;;;15.00;3.53;;;20.80;99.90;;;;;;5055916;28;20200;-90
2023/06/02 03:26:12;;;;;;;13.77;3.15;;;20.80;99.90;;;;;;5054463;28;20239;-90
2023/06/02 03:28:48;;;;;;;10.73;3.30;;;20.80;99.90;;;;;;5071515;28;20204;-90
2023/06/02 03:31:24;;;;;;;16.00;3.28;;;20.90;99.90;;;;;;5074153;28;20227;-90
2023/06/02 03:33:56;;;;;;;14.75;3.13;;;20.90;99.90;;;;;;5075425;28;20188;-89
2023/06/02 03:36:28;;;;;;;12.18;3.28;;;20.90;99.90;;;;;;5077114;28;20202;-90
2023/06/02 03:39:00;;;;;;;16.30;3.83;;;20.90;99.90;;;;;;5074574;28;20199;-90
2023/06/02 03:41:32;;;;;;;12.73;3.20;;;20.90;99.90;;;;;;5075249;28;20207;-90
2023/06/02 03:44:11;;;;;;;16.30;3.25;;;20.90;99.90;;;;;;5082115;28;20218;-85
2023/06/02 03:46:43;;;;;;;16.27;3.85;;;20.90;99.90;;;;;;5071695;28;20208;-91
2023/06/02 03:49:15;;;;;;;18.90;3.53;;;20.90;99.90;;;;;;5077178;28;20200;-89
2023/06/02 03:51:50;;;;;;;13.45;3.28;;;20.90;99.90;;;;;;5084525;28;20551;-91
2023/06/02 03:54:24;;;;;;;20.55;4.20;;;20.80;99.90;;;;;;5074410;28;20418;-91
2023/06/02 03:56:59;;;;;;;14.63;3.67;;;20.80;99.90;;;;;;5073929;28;20195;-90
2023/06/02 03:59:33;;;;;;;14.27;3.58;;;20.80;99.90;;;;;;5074443;28;20199;-90
2023/06/02 04:02:06;;;;;;;10.50;2.88;;;20.70;99.90;;;;;;5074473;28;20198;-91
2023/06/02 04:04:38;;;;;;;17.92;3.88;;;20.70;99.90;;;;;;5073689;28;20655;-91
2023/06/02 04:07:10;;;;;;;9.48;3.08;;;20.80;99.90;;;;;;5073383;28;20300;-91
2023/06/02 04:09:42;;;;;;;12.32;3.42;;;20.70;99.90;;;;;;5073646;28;20196;-91
2023/06/02 04:12:13;;;;;;;16.85;3.80;;;20.70;99.90;;;;;;5074414;28;20199;-90
2023/06/02 04:14:47;;;;;;;13.63;3.85;;;20.80;99.90;;;;;;5073632;28;20203;-90
2023/06/02 04:17:19;;;;;;;11.75;3.05;;;20.70;99.90;;;;;;5074047;28;20222;-90
2023/06/02 04:19:52;;;;;;;17.45;3.35;;;20.70;99.90;;;;;;5074348;28;20215;-92
2023/06/02 04:22:25;;;;;;;13.93;3.78;;;20.70;99.90;;;;;;5074468;28;20392;-91
2023/06/02 04:24:56;;;;;;;12.55;3.40;;;20.70;99.90;;;;;;5073983;28;20207;-91
2023/06/02 04:27:28;;;;;;;14.65;3.40;;;20.60;99.90;;;;;;5074701;28;20598;-91
2023/06/02 04:30:06;;;;;;;16.42;3.20;;;20.60;99.90;;;;;;5086000;28;20703;-90
2023/06/02 04:32:40;;;;;;;13.65;3.30;;;20.50;99.90;;;;;;5079065;28;20253;-91
2023/06/02 04:35:13;;;;;;;13.63;3.28;;;20.50;99.90;;;;;;5073453;28;20351;-91
2023/06/02 04:37:47;;;;;;;13.90;3.08;;;20.50;99.90;;;;;;5073077;28;20211;-91
2023/06/02 04:40:20;;;;;;;12.77;2.90;;;20.50;99.90;;;;;;5078830;28;20257;-91
2023/06/02 04:42:52;;;;;;;16.98;2.90;;;20.50;99.90;;;;;;5076352;28;20675;-92
2023/06/02 04:45:27;;;;;;;10.80;2.92;;;20.50;99.90;;;;;;5082273;28;20658;-91
2023/06/02 04:48:00;;;;;;;14.18;2.97;;;20.50;99.90;;;;;;5076595;28;20210;-90
2023/06/02 04:50:31;;;;;;;11.18;2.80;;;20.50;99.90;;;;;;5059379;28;20200;-91
2023/06/02 04:53:03;;;;;;;13.35;3.00;;;20.50;99.90;;;;;;5056141;28;20207;-91
2023/06/02 04:55:36;;;;;;;14.90;3.08;;;20.40;99.90;;;;;;5074537;28;20219;-91
2023/06/02 04:58:08;;;;;;;15.48;3.35;;;20.40;99.90;;;;;;5070815;28;20203;-91
2023/06/02 05:00:45;;;;;;;13.10;3.10;;;20.30;99.90;;;;;;5056754;28;20205;-91
2023/06/02 05:03:17;;;;;;;12.07;2.58;;;20.30;99.90;;;;;;5072387;28;20208;-91
2023/06/02 05:05:52;;;;;;;14.02;3.25;;;20.20;99.90;;;;;;5076183;28;20234;-91
2023/06/02 05:08:25;;;;;;;13.82;2.83;;;20.20;99.90;;;;;;5058542;28;20299;-90
2023/06/02 05:10:57;;;;;;;16.10;3.65;;;20.10;99.90;;;;;;5080739;28;20290;-91
2023/06/02 05:13:30;;;;;;;13.32;3.00;;;20.10;99.90;;;;;;5077597;28;20200;-91
2023/06/02 05:16:05;;;;;;;14.95;3.35;;;20.10;99.90;;;;;;5075973;28;20200;-91
2023/06/02 05:18:37;;;;;;;12.10;3.15;;;20.10;99.90;;;;;;5076189;28;20607;-91
2023/06/02 05:21:10;;;;;;;13.00;3.00;;;20.10;99.90;;;;;;5076230;28;20196;-91
2023/06/02 05:23:43;;;;;;;17.73;3.65;;;20.10;99.90;;;;;;5058476;28;20204;-91
2023/06/02 05:26:15;;;;;;;14.77;3.67;;;20.10;99.90;;;;;;5058410;28;20703;-92
2023/06/02 05:28:47;;;;;;;13.00;3.15;;;20.20;99.90;;;;;;5075793;28;20226;-89
2023/06/02 05:31:22;;;;;;;10.80;3.20;;;20.20;99.90;;;;;;5075861;28;20242;-90
2023/06/02 05:33:55;;;;;;;13.32;3.17;;;20.10;99.90;;;;;;5066608;28;20228;-91
2023/06/02 05:36:27;;;;;;;11.43;2.72;;;20.20;99.90;;;;;;5070560;28;20203;-90
2023/06/02 05:38:59;;;;;;;13.02;3.13;;;20.20;99.90;;;;;;5075186;28;20212;-90
2023/06/02 05:41:33;;;;;;;17.63;3.35;;;20.10;99.90;;;;;;5073547;28;20188;-91
2023/06/02 05:44:08;;;;;;;14.98;3.55;;;20.20;99.90;;;;;;5076216;28;20221;-91
2023/06/02 05:46:43;;;;;;;18.58;3.70;;;20.20;99.90;;;;;;5075090;28;20237;-90
2023/06/02 05:49:15;;;;;;;15.43;3.58;;;20.20;99.90;;;;;;5078692;28;20196;-89
2023/06/02 05:51:48;;;;;;;13.40;2.83;;;20.20;99.90;;;;;;5090766;28;20196;-90
2023/06/02 05:54:20;;;;;;;10.93;2.72;;;20.20;99.90;;;;;;5085386;28;20705;-91
2023/06/02 05:56:54;;;;;;;19.30;3.45;;;20.20;99.90;;;;;;5073618;28;20188;-91
2023/06/02 05:59:26;;;;;;;11.10;2.97;;;20.30;99.90;;;;;;5065668;28;20188;-90
2023/06/02 06:02:03;;;;;;;9.18;2.65;;;20.30;99.90;;;;;;5054948;28;20212;-90
2023/06/02 06:04:35;;;;;;;15.15;3.63;;;20.30;99.90;;;;;;5072401;28;20192;-90
2023/06/02 06:07:07;;;;;;;17.17;3.72;;;20.20;99.90;;;;;;5071676;28;20295;-92
2023/06/02 06:09:39;;;;;;;11.40;3.00;;;20.20;99.90;;;;;;5067172;28;20266;-90
2023/06/02 06:12:12;;;;;;;13.43;3.13;;;20.20;99.90;;;;;;5074687;28;20231;-91
2023/06/02 06:14:46;;;;;;;10.45;2.80;;;20.20;99.90;;;;;;5063234;28;20204;-91
2023/06/02 06:17:24;;;;;;;9.93;2.38;;;20.20;99.90;;;;;;5058818;28;20192;-92
2023/06/02 06:19:55;;;;;;;11.82;2.88;;;20.20;99.90;;;;;;5075878;28;20207;-91
2023/06/02 06:22:26;;;;;;;11.52;2.65;;;20.20;99.90;;;;;;5076601;28;20196;-92
2023/06/02 06:24:58;;;;;;;12.75;2.70;;;20.20;99.90;;;;;;5075636;28;20207;-91
2023/06/02 06:27:30;;;;;;;15.52;3.17;;;20.10;99.90;;;;;;5077595;28;20707;-91
2023/06/02 06:30:03;;;;;;;11.10;2.67;;;20.00;99.90;;;;;;5087038;28;20227;-91
2023/06/02 06:32:37;;;;;;;12.98;3.22;;;20.00;99.90;;;;;;5075290;28;20219;-90
2023/06/02 06:35:10;;;;;;;15.15;2.72;;;19.90;99.90;;;;;;5075709;28;20236;-90
2023/06/02 06:37:43;;;;;;;15.60;2.80;;;19.90;99.90;;;;;;5075545;28;20203;-91
2023/06/02 06:40:15;;;;;;;11.80;2.83;;;19.80;99.90;;;;;;5075671;28;20199;-91
2023/06/02 06:42:47;;;;;;;11.10;2.65;;;19.80;99.90;;;;;;5075710;28;20219;-91
2023/06/02 06:45:19;;;;;;;10.68;2.60;;;19.70;99.90;;;;;;5080449;28;20200;-91
2023/06/02 06:47:57;;;;;;;15.18;3.05;;;19.60;99.90;;;;;;5080137;28;20249;-92
2023/06/02 06:50:29;;;;;;;11.50;3.25;;;19.60;99.90;;;;;;5080167;28;20662;-91
2023/06/02 06:53:01;;;;;;;10.98;2.67;;;19.60;99.90;;;;;;5082409;28;20204;-92
2023/06/02 06:55:33;;;;;;;13.43;3.22;;;19.50;99.90;;;;;;5080392;28;20184;-91
2023/06/02 06:58:05;;;;;;;10.32;2.70;;;19.50;99.90;;;;;;5076607;28;20194;-91
2023/06/02 07:00:37;;;;;;;12.77;3.13;;;19.40;99.90;;;;;;5071789;28;20211;-90
2023/06/02 07:03:11;;;;;;;15.98;3.88;;;19.40;99.90;;;;;;5076797;28;20202;-90
2023/06/02 07:05:47;;;;;;;9.88;3.13;;;19.40;99.90;;;;;;5071408;28;20193;-89
2023/06/02 07:08:19;;;;;;;12.82;3.40;;;19.30;99.90;;;;;;5056378;28;20737;-89
2023/06/02 07:10:50;;;;;;;10.90;3.35;;;19.30;99.90;;;;;;5067218;28;20207;-89
2023/06/02 07:13:22;;;;;;;12.55;3.10;;;19.30;99.90;;;;;;5076501;28;20310;-88
2023/06/02 07:15:55;;;;;;;10.55;2.55;;;19.30;99.90;;;;;;5075986;28;20200;-90
2023/06/02 07:18:30;;;;;;;11.85;2.97;;;19.30;99.90;;;;;;5065876;28;20217;-91
2023/06/02 07:21:01;;;;;;;10.73;2.75;;;19.20;99.90;;;;;;5056255;28;20200;-91
2023/06/02 07:23:33;;;;;;;10.43;2.72;;;19.20;99.90;;;;;;5057233;28;20208;-91
2023/06/02 07:26:04;;;;;;;13.07;3.10;;;19.20;99.90;;;;;;5075957;28;20200;-91
2023/06/02 07:28:36;;;;;;;11.23;2.83;;;19.10;99.90;;;;;;5075749;28;20204;-90
2023/06/02 07:31:09;;;;;;;8.20;2.50;;;19.10;99.90;;;;;;5076266;28;20316;-91
2023/06/02 07:33:45;;;;;;;11.35;2.65;;;19.10;99.90;;;;;;5074960;28;20559;-90
2023/06/02 07:36:22;;;;;;;12.85;3.22;;;19.10;99.90;;;;;;5074846;28;20208;-90
2023/06/02 07:38:54;;;;;;;12.57;2.90;;;19.10;99.90;;;;;;5077323;28;20567;-91
2023/06/02 07:41:27;;;;;;;13.80;2.50;;;19.10;99.90;;;;;;5074867;28;20277;-91
2023/06/02 07:44:01;;;;;;;15.63;3.15;;;19.00;99.90;;;;;;5074863;28;20200;-91
2023/06/02 07:46:33;;;;;;;13.40;4.75;;;19.00;99.90;;;;;;5078807;28;20204;-91
2023/06/02 07:49:07;;;;;;;12.90;4.47;;;19.00;99.90;;;;;;5087137;28;20214;-91
2023/06/02 07:51:39;;;;;;;10.95;3.92;;;18.90;99.90;;;;;;5079978;28;20651;-90
2023/06/02 07:54:11;;;;;;;13.57;3.70;;;18.90;99.90;;;;;;5080716;28;20208;-89
2023/06/02 07:56:43;;;;;;;12.00;3.13;;;18.90;99.90;;;;;;5088915;28;20204;-90
2023/06/02 07:59:15;;;;;;;14.30;3.35;;;18.90;99.90;;;;;;5086431;28;20202;-89
2023/06/02 08:01:47;;;;;;;8.20;2.40;;;18.90;99.90;;;;;;5077035;28;20196;-90
2023/06/02 08:04:25;;;;;;;14.90;3.10;;;18.90;99.90;;;;;;5074577;28;20564;-90
2023/06/02 08:07:00;;;;;;;9.73;2.75;;;18.90;99.90;;;;;;5075140;28;20251;-91
2023/06/02 08:09:38;;;;;;;13.43;2.97;;;18.90;99.90;;;;;;5074228;28;20199;-90
2023/06/02 08:12:10;;;;;;;12.40;2.90;;;18.90;99.90;;;;;;5074611;28;20658;-90
2023/06/02 08:14:42;;;;;;;18.35;3.55;;;18.90;99.90;;;;;;5076348;28;20279;-90
2023/06/02 08:17:13;;;;;;;12.82;3.00;;;18.90;99.90;;;;;;5062550;28;20203;-91
2023/06/02 08:19:50;;;;;;;9.38;2.80;;;18.90;99.90;;;;;;5073104;28;20574;-90
2023/06/02 08:22:21;;;;;;;12.70;3.03;;;18.90;99.90;;;;;;5072114;28;20200;-89
2023/06/02 08:24:54;;;;;;;12.30;3.10;;;18.90;99.90;;;;;;5065992;28;20192;-90
2023/06/02 08:27:27;;;;;;;11.45;3.03;;;18.90;99.90;;;;;;5054427;28;20247;-89
2023/06/02 08:29:59;;;;;;;14.82;3.03;;;18.80;99.90;;;;;;5060791;28;20228;-89
2023/06/02 08:32:32;;;;;;;10.45;2.90;;;18.80;99.90;;;;;;5069743;28;20193;-90
2023/06/02 08:35:07;;;;;;;13.50;3.20;;;18.80;99.90;;;;;;5062877;28;20200;-90
2023/06/02 08:37:40;;;;;;;12.48;3.20;;;18.80;99.90;;;;;;5074347;28;20199;-90
2023/06/02 08:40:14;;;;;;;14.82;3.55;;;18.80;99.90;;;;;;5074295;28;20196;-90
2023/06/02 08:42:48;;;;;;;8.52;3.10;;;18.80;99.90;;;;;;5073739;28;20666;-90
2023/06/02 08:45:22;;;;;;;13.02;3.40;;;18.80;99.90;;;;;;5073948;28;20571;-90
2023/06/02 08:47:58;;;;;;;12.32;3.60;;;18.80;99.90;;;;;;5073748;28;20314;-90
2023/06/02 08:50:34;;;;;;;11.15;3.22;;;18.80;99.90;;;;;;5074426;28;20207;-90
2023/06/02 08:53:07;;;;;;;13.00;3.50;;;18.80;99.90;;;;;;5073717;28;20313;-89
2023/06/02 08:55:42;;;;;;;12.27;3.33;;;18.80;99.90;;;;;;5076111;28;20557;-89
2023/06/02 08:58:15;;;;;;;14.55;4.40;;;18.80;99.90;;;;;;5073372;28;20215;-90
2023/06/02 09:00:47;;;;;;;13.35;4.38;;;18.80;99.90;;;;;;5075001;28;20552;-90
2023/06/02 09:03:19;;;;;;;11.73;3.90;;;18.70;99.90;;;;;;5073949;28;20643;-90
2023/06/02 09:05:53;;;;;;;12.13;3.50;;;18.70;99.90;;;;;;5078602;28;20200;-89
2023/06/02 09:08:29;;;;;;;16.42;4.03;;;18.70;99.90;;;;;;5079649;28;20220;-90
2023/06/02 09:11:01;;;;;;;16.25;7.70;;;18.70;99.90;;;;;;5053726;28;20184;-91
2023/06/02 09:13:40;;;;;;;20.40;6.95;;;18.60;99.90;;;;;;5055981;28;20664;-89
2023/06/02 09:16:12;;;;;;;16.38;5.90;;;18.60;99.90;;;;;;5051901;28;20284;-90
2023/06/02 09:18:57;;;;;;;16.70;5.28;;;18.60;99.90;;;;;;5059133;28;20208;-90
2023/06/02 09:21:33;;;;;;;16.27;5.50;;;18.60;99.90;;;;;;5073433;28;20198;-89
2023/06/02 09:24:06;;;;;;;14.63;6.50;;;18.60;99.90;;;;;;5072824;28;20199;-89
2023/06/02 09:26:37;;;;;;;15.40;5.97;;;18.60;99.90;;;;;;5072736;28;20207;-90
2023/06/02 09:29:12;;;;;;;20.27;8.65;;;18.60;99.90;;;;;;5072455;28;20238;-90
2023/06/02 09:31:48;;;;;;;16.23;6.97;;;18.60;99.90;;;;;;5074584;28;20675;-89
2023/06/02 09:34:21;;;;;;;14.57;5.85;;;18.60;99.90;;;;;;5073400;28;20199;-90
2023/06/02 09:36:58;;;;;;;16.77;6.15;;;18.60;99.90;;;;;;5074165;28;20188;-90
2023/06/02 09:39:42;;;;;;;14.43;5.90;;;18.60;99.90;;;;;;5074621;28;20190;-90
2023/06/02 09:42:14;;;;;;;13.93;5.35;;;18.60;99.90;;;;;;5072331;28;20195;-90
2023/06/02 09:45:06;;;;;;;14.02;5.47;;;18.60;99.90;;;;;;5066220;28;20200;-91
2023/06/02 09:47:41;;;;;;;13.02;6.63;;;18.50;99.90;;;;;;5056110;28;20365;-90
2023/06/02 09:50:32;;;;;;;13.85;6.65;;;18.50;99.90;;;;;;5070576;28;20222;-90
2023/06/02 09:53:22;;;;;;;14.13;5.28;;;18.50;99.90;;;;;;5076705;28;20658;-90
2023/06/02 09:55:55;;;;;;;14.00;5.15;;;18.50;99.90;;;;;;5076657;28;20679;-89
2023/06/02 09:58:27;;;;;;;11.93;4.90;;;18.50;99.90;;;;;;5077230;28;20238;-90
2023/06/02 10:00:59;;;;;;;11.23;3.92;;;18.50;99.90;;;;;;5087638;28;20204;-90
2023/06/02 10:03:33;;;;;;;10.80;4.25;;;18.50;99.90;;;;;;5056735;28;20683;-90
2023/06/02 10:06:14;;;;;;;14.18;4.65;;;18.50;99.90;;;;;;5056440;28;20199;-88
2023/06/02 10:08:57;;;;;;;14.18;3.92;;;18.40;99.90;;;;;;5055579;28;20228;-89
2023/06/02 10:11:35;;;;;;;11.55;3.95;;;18.40;99.90;;;;;;5056527;28;20196;-90
2023/06/02 10:14:22;;;;;;;13.95;5.05;;;18.40;99.90;;;;;;5056289;28;20205;-90
2023/06/02 10:17:12;;;;;;;11.73;4.25;;;18.40;99.90;;;;;;5060578;28;20214;-90
2023/06/02 10:20:14;;;;;;;12.57;5.60;;;18.40;99.90;;;;;;5076161;28;20192;-90
2023/06/02 10:23:06;;;;;;;15.00;6.30;;;18.30;99.90;;;;;;5066174;28;20578;-89
2023/06/02 10:25:56;;;;;;;17.27;6.15;;;18.40;99.90;;;;;;5084395;28;20179;-90
2023/06/02 10:28:29;;;;;;;16.83;6.07;;;18.30;99.90;;;;;;5078359;28;20250;-90
2023/06/02 10:31:10;;;;;;;12.52;5.70;;;18.30;99.90;;;;;;5076301;28;20235;-90
2023/06/02 10:33:49;;;;;;;15.15;5.60;;;18.30;99.90;;;;;;5074774;28;20210;-88
2023/06/02 10:36:20;;;;;;;13.57;5.00;;;18.30;99.90;;;;;;5076111;28;20207;-91
2023/06/02 10:38:51;;;;;;;14.35;4.70;;;18.30;99.90;;;;;;5061604;28;20213;-90
2023/06/02 10:42:03;;;;;;;13.40;4.50;;;18.30;99.90;;;;;;5055582;28;20196;-90
2023/06/02 10:44:35;;;;;;;10.77;3.83;;;18.30;99.90;;;;;;5055373;28;20200;-90
2023/06/02 10:47:38;;;;;;;10.68;3.88;;;18.20;99.90;;;;;;5063871;28;20192;-90
2023/06/02 10:50:14;;;;;;;11.15;3.83;;;18.20;99.90;;;;;;5075339;28;20191;-90
2023/06/02 10:53:16;;;;;;;10.85;3.97;;;18.20;99.90;;;;;;5075321;28;20563;-90
2023/06/02 10:55:50;;;;;;;12.73;4.28;;;18.20;99.90;;;;;;5000310;28;20202;-90
2023/06/02 10:58:45;;;;;;;13.20;4.10;;;18.20;99.90;;;;;;5064105;28;20761;-90
2023/06/02 11:01:38;;;;;;;14.55;4.78;;;18.20;99.90;;;;;;5078819;28;20659;-90
2023/06/02 11:04:29;;;;;;;10.80;3.97;;;18.20;99.90;;;;;;5090002;28;20253;-90
2023/06/02 11:07:21;;;;;;;11.00;3.92;;;18.20;99.90;;;;;;5092277;28;20219;-90
2023/06/02 11:09:55;;;;;;;11.48;3.70;;;18.20;99.90;;;;;;5079233;28;20282;-90
2023/06/02 11:13:06;;;;;;;10.10;4.07;;;18.20;99.90;;;;;;5078202;28;20200;-90
2023/06/02 11:15:42;;;;;;;11.07;3.80;;;18.10;99.90;;;;;;5078055;28;20199;-90
2023/06/02 11:18:44;;;;;;;11.18;3.95;;;18.10;99.90;;;;;;5076710;28;20257;-89
2023/06/02 11:21:26;;;;;;;13.60;4.35;;;18.20;99.90;;;;;;5064797;28;20210;-90
2023/06/02 11:23:57;;;;;;;13.98;4.32;;;18.20;99.90;;;;;;5055487;28;20279;-90
2023/06/02 11:26:29;;;;;;;9.73;3.05;;;18.10;99.90;;;;;;5073030;28;20203;-89
2023/06/02 11:29:15;;;;;;;11.65;3.97;;;18.20;99.90;;;;;;5055539;28;20718;-90
2023/06/02 11:32:15;;;;;;;10.10;3.47;;;18.20;99.90;;;;;;5057488;28;20208;-90
2023/06/02 11:37:36;;;;;;;10.30;3.65;;;18.20;99.90;;;;;;5065020;28;20203;-91
2023/06/02 11:40:23;;;;;;;14.52;4.00;;;18.10;99.90;;;;;;5060884;28;20200;-90
2023/06/02 11:43:00;;;;;;;10.68;3.25;;;18.20;99.90;;;;;;5071306;28;20206;-92
2023/06/02 11:45:37;;;;;;;11.68;3.05;;;18.10;99.90;;;;;;5068870;28;20200;-90
2023/06/02 11:48:22;;;;;;;8.30;3.15;;;18.10;99.90;;;;;;5062275;28;20228;-91
2023/06/02 11:51:00;;;;;;;11.40;3.30;;;18.10;99.90;;;;;;5062943;28;20197;-91
2023/06/02 11:53:37;;;;;;;8.77;3.00;;;18.10;99.90;;;;;;5063010;28;20209;-89
2023/06/02 11:56:15;;;;;;;9.20;2.80;;;18.10;99.90;;;;;;5060747;28;20192;-90
2023/06/02 11:58:55;;;;;;;8.75;2.90;;;18.10;99.90;;;;;;5061091;28;20207;-90
2023/06/02 12:01:49;;;;;;;10.18;3.10;;;18.10;99.90;;;;;;5080730;28;20256;-91
2023/06/02 12:04:33;;;;;;;9.43;3.25;;;18.10;99.90;;;;;;5079304;28;20241;-90
2023/06/02 12:07:09;;;;;;;12.35;3.95;;;18.10;99.90;;;;;;5088497;28;20242;-90
2023/06/02 12:09:50;;;;;;;14.52;3.47;;;18.20;99.90;;;;;;5091154;28;20230;-90
2023/06/02 12:12:42;;;;;;;16.00;3.40;;;18.10;99.90;;;;;;5082512;28;20203;-90
2023/06/02 12:15:31;;;;;;;12.38;3.00;;;18.10;99.90;;;;;;5081628;28;20200;-89
2023/06/02 12:18:22;;;;;;;10.68;3.10;;;18.20;99.90;;;;;;5063415;28;20193;-91
2023/06/02 12:21:15;;;;;;;10.25;2.90;;;18.20;99.90;;;;;;5070658;28;20199;-91
2023/06/02 12:23:52;;;;;;;9.40;3.30;;;18.20;99.90;;;;;;5081721;28;20188;-91
2023/06/02 12:26:32;;;;;;;9.38;2.80;;;18.20;99.90;;;;;;5082112;28;20203;-90
2023/06/02 12:29:07;;;;;;;12.43;3.47;;;18.20;99.90;;;;;;5081959;28;20227;-89
2023/06/02 12:34:29;;;;;;;9.77;3.25;;;18.20;99.90;;;;;;5081462;28;20200;-90
2023/06/02 12:37:21;;;;;;;9.13;2.95;;;18.30;99.90;;;;;;5080809;28;20200;-90
2023/06/02 12:39:55;;;;;;;8.63;3.05;;;18.30;99.90;;;;;;5076186;28;20223;-90
2023/06/02 12:42:32;;;;;;;12.90;3.55;;;18.30;99.90;;;;;;5079307;28;20210;-91
2023/06/02 12:45:05;;;;;;;11.20;3.00;;;18.30;99.90;;;;;;5083893;28;20196;-91
2023/06/02 12:47:41;;;;;;;9.30;3.05;;;18.30;99.90;;;;;;5085010;28;20216;-88
2023/06/02 12:50:16;;;;;;;10.98;3.10;;;18.30;99.90;;;;;;5090693;28;20291;-87
2023/06/02 12:52:54;;;;;;;12.60;3.03;;;18.20;99.90;;;;;;5092033;28;20192;-87
2023/06/02 12:55:30;;;;;;;11.55;3.28;;;18.30;99.90;;;;;;5084561;28;20207;-87
2023/06/02 12:58:02;;;;;;;8.15;2.92;;;18.30;99.90;;;;;;5087412;28;20203;-87
2023/06/02 13:00:34;;;;;;;8.98;2.85;;;18.20;99.90;;;;;;5087474;28;20234;-88
2023/06/02 13:03:05;;;;;;;10.85;3.13;;;18.30;99.90;;;;;;5077146;28;20188;-90
2023/06/02 13:05:37;;;;;;;7.32;2.72;;;18.30;99.90;;;;;;5088445;28;20199;-88
2023/06/02 13:08:11;;;;;;;9.57;2.70;;;18.20;99.90;;;;;;5075729;28;20277;-90
2023/06/02 13:10:45;;;;;;;11.70;3.80;;;18.20;99.90;;;;;;5075827;28;20206;-90
2023/06/02 13:13:20;;;;;;;7.97;3.00;;;18.20;99.90;;;;;;5075275;28;20191;-90
2023/06/02 13:15:51;;;;;;;14.60;3.95;;;18.20;99.90;;;;;;5076399;28;20210;-89
2023/06/02 13:18:23;;;;;;;12.27;3.88;;;18.20;99.90;;;;;;5078289;28;20200;-90
2023/06/02 13:20:54;;;;;;;14.77;4.30;;;18.20;99.90;;;;;;5073152;28;20200;-90
2023/06/02 13:23:30;;;;;;;15.13;4.28;;;18.20;99.90;;;;;;5073280;28;20242;-90
2023/06/02 13:26:02;;;;;;;13.80;4.03;;;18.20;99.90;;;;;;5053064;28;20199;-90